sensor_id;sensor_type;location;lat;lon;timestamp;P1;durP1;ratioP1;P2;durP2;ratioP2
40815;SDS011;26535;48.788;9.214;2023-11-22T00:01:27;17.85;;;7.00;;
40815;SDS011;26535;48.788;9.214;2023-11-22T00:03:53;10.05;;;6.63;;
40815;SDS011;26535;48.788;9.214;2023-11-22T00:06:19;10.13;;;5.93;;
40815;SDS011;26535;48.788;9.214;2023-11-22T00:08:46;6.60;;;2.58;;
40815;SDS011;26535;48.788;9.214;2023-11-22T00:11:12;4.32;;;2.13;;
40815;SDS011;26535;48.788;9.214;2023-11-22T00:13:38;4.10;;;2.30;;
40815;SDS011;26535;48.788;9.214;2023-11-22T00:16:04;4.18;;;2.30;;
40815;SDS011;26535;48.788;9.214;2023-11-22T00:18:34;4.32;;;2.55;;
40815;SDS011;26535;48.788;9.214;2023-11-22T00:21:03;4.88;;;2.63;;
40815;SDS011;26535;48.788;9.214;2023-11-22T00:23:31;5.80;;;2.80;;
40815;SDS011;26535;48.788;9.214;2023-11-22T00:25:57;4.85;;;2.97;;
40815;SDS011;26535;48.788;9.214;2023-11-22T00:28:24;5.10;;;3.05;;
40815;SDS011;26535;48.788;9.214;2023-11-22T00:30:49;5.50;;;3.20;;
40815;SDS011;26535;48.788;9.214;2023-11-22T00:33:15;5.68;;;3.85;;
40815;SDS011;26535;48.788;9.214;2023-11-22T00:35:43;4.85;;;3.15;;
40815;SDS011;26535;48.788;9.214;2023-11-22T00:38:08;5.30;;;2.90;;
40815;SDS011;26535;48.788;9.214;2023-11-22T00:40:34;5.70;;;3.45;;
40815;SDS011;26535;48.788;9.214;2023-11-22T00:43:00;5.20;;;3.33;;
40815;SDS011;26535;48.788;9.214;2023-11-22T00:45:26;6.97;;;3.38;;
40815;SDS011;26535;48.788;9.214;2023-11-22T00:47:52;6.65;;;3.85;;
40815;SDS011;26535;48.788;9.214;2023-11-22T00:50:19;6.97;;;4.05;;
40815;SDS011;26535;48.788;9.214;2023-11-22T00:52:46;5.60;;;3.55;;
40815;SDS011;26535;48.788;9.214;2023-11-22T00:55:12;6.50;;;3.80;;
40815;SDS011;26535;48.788;9.214;2023-11-22T00:57:38;6.32;;;3.95;;
40815;SDS011;26535;48.788;9.214;2023-11-22T01:00:04;7.38;;;4.55;;
40815;SDS011;26535;48.788;9.214;2023-11-22T01:02:34;7.40;;;4.32;;
40815;SDS011;26535;48.788;9.214;2023-11-22T01:05:04;7.43;;;4.22;;
40815;SDS011;26535;48.788;9.214;2023-11-22T01:07:36;8.80;;;5.03;;
40815;SDS011;26535;48.788;9.214;2023-11-22T01:10:03;6.35;;;4.07;;
40815;SDS011;26535;48.788;9.214;2023-11-22T01:12:30;6.30;;;4.30;;
40815;SDS011;26535;48.788;9.214;2023-11-22T01:14:56;7.32;;;4.70;;
40815;SDS011;26535;48.788;9.214;2023-11-22T01:17:22;6.82;;;4.25;;
40815;SDS011;26535;48.788;9.214;2023-11-22T01:19:49;8.48;;;4.53;;
40815;SDS011;26535;48.788;9.214;2023-11-22T01:22:15;7.57;;;4.30;;
40815;SDS011;26535;48.788;9.214;2023-11-22T01:24:42;7.07;;;4.57;;
40815;SDS011;26535;48.788;9.214;2023-11-22T01:27:08;6.88;;;4.20;;
40815;SDS011;26535;48.788;9.214;2023-11-22T01:29:34;6.85;;;4.00;;
40815;SDS011;26535;48.788;9.214;2023-11-22T07:06:51;5.67;;;3.33;;
40815;SDS011;26535;48.788;9.214;2023-11-22T07:09:18;4.10;;;2.50;;
40815;SDS011;26535;48.788;9.214;2023-11-22T07:11:46;5.43;;;2.90;;
40815;SDS011;26535;48.788;9.214;2023-11-22T07:14:32;4.32;;;2.47;;
40815;SDS011;26535;48.788;9.214;2023-11-22T07:17:01;6.80;;;3.17;;
40815;SDS011;26535;48.788;9.214;2023-11-22T07:19:36;4.95;;;2.83;;
40815;SDS011;26535;48.788;9.214;2023-11-22T07:22:06;5.93;;;2.95;;
40815;SDS011;26535;48.788;9.214;2023-11-22T07:24:43;5.25;;;2.80;;
40815;SDS011;26535;48.788;9.214;2023-11-22T07:27:11;4.57;;;2.70;;
40815;SDS011;26535;48.788;9.214;2023-11-22T07:29:43;4.65;;;2.70;;
40815;SDS011;26535;48.788;9.214;2023-11-22T07:32:18;6.97;;;3.42;;
40815;SDS011;26535;48.788;9.214;2023-11-22T07:34:59;4.97;;;2.75;;
40815;SDS011;26535;48.788;9.214;2023-11-22T07:37:28;5.55;;;2.60;;
40815;SDS011;26535;48.788;9.214;2023-11-22T07:40:04;5.15;;;2.47;;
40815;SDS011;26535;48.788;9.214;2023-11-22T07:42:48;4.30;;;2.35;;
40815;SDS011;26535;48.788;9.214;2023-11-22T07:45:14;4.55;;;2.53;;
40815;SDS011;26535;48.788;9.214;2023-11-22T07:47:43;3.70;;;2.30;;
40815;SDS011;26535;48.788;9.214;2023-11-22T07:50:17;5.45;;;2.42;;
40815;SDS011;26535;48.788;9.214;2023-11-22T07:52:45;4.45;;;2.40;;
40815;SDS011;26535;48.788;9.214;2023-11-22T07:55:23;4.93;;;2.58;;
40815;SDS011;26535;48.788;9.214;2023-11-22T07:57:52;4.47;;;2.30;;
40815;SDS011;26535;48.788;9.214;2023-11-22T08:00:24;4.85;;;2.50;;
40815;SDS011;26535;48.788;9.214;2023-11-22T08:03:18;4.78;;;2.47;;
40815;SDS011;26535;48.788;9.214;2023-11-22T08:05:51;6.13;;;3.00;;
40815;SDS011;26535;48.788;9.214;2023-11-22T08:08:30;5.65;;;2.70;;
40815;SDS011;26535;48.788;9.214;2023-11-22T08:10:56;6.68;;;2.72;;
40815;SDS011;26535;48.788;9.214;2023-11-22T08:13:25;4.95;;;3.10;;
40815;SDS011;26535;48.788;9.214;2023-11-22T08:16:01;5.03;;;2.85;;
40815;SDS011;26535;48.788;9.214;2023-11-22T08:18:39;4.90;;;2.70;;
40815;SDS011;26535;48.788;9.214;2023-11-22T08:21:16;5.13;;;2.35;;
40815;SDS011;26535;48.788;9.214;2023-11-22T08:23:51;5.03;;;2.40;;
40815;SDS011;26535;48.788;9.214;2023-11-22T08:26:19;5.93;;;3.00;;
40815;SDS011;26535;48.788;9.214;2023-11-22T08:29:00;6.35;;;2.97;;
40815;SDS011;26535;48.788;9.214;2023-11-22T08:31:26;4.68;;;2.90;;
40815;SDS011;26535;48.788;9.214;2023-11-22T08:33:58;5.82;;;3.00;;
40815;SDS011;26535;48.788;9.214;2023-11-22T08:38:59;6.22;;;2.97;;
40815;SDS011;26535;48.788;9.214;2023-11-22T08:41:36;6.25;;;2.97;;
40815;SDS011;26535;48.788;9.214;2023-11-22T08:44:13;5.50;;;2.83;;
40815;SDS011;26535;48.788;9.214;2023-11-22T08:46:39;5.03;;;2.78;;
40815;SDS011;26535;48.788;9.214;2023-11-22T08:49:06;4.70;;;2.60;;
40815;SDS011;26535;48.788;9.214;2023-11-22T08:51:35;5.63;;;3.40;;
40815;SDS011;26535;48.788;9.214;2023-11-22T08:54:30;5.40;;;3.20;;
40815;SDS011;26535;48.788;9.214;2023-11-22T08:57:02;5.50;;;3.20;;
40815;SDS011;26535;48.788;9.214;2023-11-22T08:59:38;5.00;;;3.25;;
40815;SDS011;26535;48.788;9.214;2023-11-22T09:02:04;6.53;;;3.15;;
40815;SDS011;26535;48.788;9.214;2023-11-22T09:04:41;6.72;;;2.88;;
40815;SDS011;26535;48.788;9.214;2023-11-22T09:07:10;6.72;;;3.70;;
40815;SDS011;26535;48.788;9.214;2023-11-22T09:09:41;6.13;;;3.60;;
40815;SDS011;26535;48.788;9.214;2023-11-22T09:12:08;6.65;;;2.88;;
40815;SDS011;26535;48.788;9.214;2023-11-22T09:14:43;5.97;;;3.03;;
40815;SDS011;26535;48.788;9.214;2023-11-22T09:17:12;8.85;;;3.58;;
40815;SDS011;26535;48.788;9.214;2023-11-22T09:19:42;7.47;;;3.88;;
40815;SDS011;26535;48.788;9.214;2023-11-22T09:33:41;5.88;;;3.53;;
40815;SDS011;26535;48.788;9.214;2023-11-22T09:36:15;9.07;;;3.38;;
40815;SDS011;26535;48.788;9.214;2023-11-22T10:00:44;6.53;;;3.20;;
40815;SDS011;26535;48.788;9.214;2023-11-22T10:07:37;6.13;;;3.53;;
40815;SDS011;26535;48.788;9.214;2023-11-22T10:10:22;5.45;;;3.35;;
40815;SDS011;26535;48.788;9.214;2023-11-22T10:14:03;5.55;;;3.42;;
40815;SDS011;26535;48.788;9.214;2023-11-22T10:18:11;7.35;;;3.53;;
40815;SDS011;26535;48.788;9.214;2023-11-22T10:22:23;7.53;;;3.85;;
40815;SDS011;26535;48.788;9.214;2023-11-22T10:25:08;6.03;;;3.78;;
40815;SDS011;26535;48.788;9.214;2023-11-22T10:27:37;6.53;;;3.35;;
40815;SDS011;26535;48.788;9.214;2023-11-22T10:30:23;7.97;;;4.00;;
40815;SDS011;26535;48.788;9.214;2023-11-22T10:33:24;8.20;;;4.07;;
40815;SDS011;26535;48.788;9.214;2023-11-22T10:51:35;6.45;;;4.00;;
40815;SDS011;26535;48.788;9.214;2023-11-22T10:54:08;7.07;;;4.10;;
40815;SDS011;26535;48.788;9.214;2023-11-22T10:56:39;6.70;;;3.90;;
40815;SDS011;26535;48.788;9.214;2023-11-22T10:59:12;5.93;;;3.55;;
40815;SDS011;26535;48.788;9.214;2023-11-22T11:01:39;7.97;;;3.92;;
40815;SDS011;26535;48.788;9.214;2023-11-22T11:04:24;7.38;;;4.10;;
40815;SDS011;26535;48.788;9.214;2023-11-22T11:13:01;7.07;;;3.92;;
40815;SDS011;26535;48.788;9.214;2023-11-22T11:15:27;8.35;;;4.38;;
40815;SDS011;26535;48.788;9.214;2023-11-22T11:18:48;7.07;;;4.10;;
40815;SDS011;26535;48.788;9.214;2023-11-22T11:21:39;7.45;;;4.05;;
40815;SDS011;26535;48.788;9.214;2023-11-22T11:24:06;6.22;;;4.00;;
40815;SDS011;26535;48.788;9.214;2023-11-22T11:26:35;6.22;;;4.10;;
40815;SDS011;26535;48.788;9.214;2023-11-22T11:29:00;7.25;;;4.10;;
40815;SDS011;26535;48.788;9.214;2023-11-22T11:31:31;6.00;;;3.92;;
40815;SDS011;26535;48.788;9.214;2023-11-22T11:34:02;10.40;;;4.57;;
40815;SDS011;26535;48.788;9.214;2023-11-22T11:36:31;7.50;;;4.40;;
40815;SDS011;26535;48.788;9.214;2023-11-22T11:39:06;8.40;;;4.57;;
40815;SDS011;26535;48.788;9.214;2023-11-22T11:41:40;9.07;;;4.30;;
40815;SDS011;26535;48.788;9.214;2023-11-22T11:44:07;7.22;;;4.03;;
40815;SDS011;26535;48.788;9.214;2023-11-22T11:46:51;6.78;;;4.30;;
40815;SDS011;26535;48.788;9.214;2023-11-22T11:49:44;7.30;;;4.30;;
40815;SDS011;26535;48.788;9.214;2023-11-22T11:52:10;8.15;;;4.18;;
40815;SDS011;26535;48.788;9.214;2023-11-22T11:54:45;7.95;;;4.53;;
40815;SDS011;26535;48.788;9.214;2023-11-22T11:57:11;8.07;;;4.55;;
40815;SDS011;26535;48.788;9.214;2023-11-22T11:59:39;6.88;;;4.63;;
40815;SDS011;26535;48.788;9.214;2023-11-22T12:02:11;6.97;;;4.28;;
40815;SDS011;26535;48.788;9.214;2023-11-22T12:04:37;8.00;;;4.43;;
40815;SDS011;26535;48.788;9.214;2023-11-22T12:10:55;5.97;;;4.13;;
40815;SDS011;26535;48.788;9.214;2023-11-22T12:17:30;7.28;;;3.78;;
40815;SDS011;26535;48.788;9.214;2023-11-22T12:20:15;6.57;;;4.68;;
40815;SDS011;26535;48.788;9.214;2023-11-22T12:22:46;7.22;;;4.78;;
40815;SDS011;26535;48.788;9.214;2023-11-22T12:25:14;7.25;;;4.60;;
40815;SDS011;26535;48.788;9.214;2023-11-22T12:27:43;6.82;;;3.90;;
40815;SDS011;26535;48.788;9.214;2023-11-22T12:30:31;7.38;;;4.20;;
40815;SDS011;26535;48.788;9.214;2023-11-22T12:33:05;7.97;;;4.70;;
40815;SDS011;26535;48.788;9.214;2023-11-22T12:35:38;10.48;;;4.68;;
40815;SDS011;26535;48.788;9.214;2023-11-22T12:38:07;6.47;;;4.20;;
40815;SDS011;26535;48.788;9.214;2023-11-22T12:40:32;8.45;;;4.18;;
40815;SDS011;26535;48.788;9.214;2023-11-22T12:42:58;7.82;;;5.07;;
40815;SDS011;26535;48.788;9.214;2023-11-22T12:45:26;8.38;;;5.13;;
40815;SDS011;26535;48.788;9.214;2023-11-22T12:48:24;7.78;;;4.78;;
40815;SDS011;26535;48.788;9.214;2023-11-22T12:50:54;6.88;;;4.10;;
40815;SDS011;26535;48.788;9.214;2023-11-22T12:53:20;6.90;;;4.28;;
40815;SDS011;26535;48.788;9.214;2023-11-22T12:55:50;7.22;;;4.35;;
40815;SDS011;26535;48.788;9.214;2023-11-22T12:58:23;9.95;;;5.18;;
40815;SDS011;26535;48.788;9.214;2023-11-22T13:00:53;7.60;;;4.28;;
40815;SDS011;26535;48.788;9.214;2023-11-22T13:03:36;8.60;;;4.30;;
40815;SDS011;26535;48.788;9.214;2023-11-22T13:06:02;12.82;;;4.30;;
40815;SDS011;26535;48.788;9.214;2023-11-22T13:08:29;7.03;;;4.13;;
40815;SDS011;26535;48.788;9.214;2023-11-22T13:10:55;5.95;;;3.78;;
40815;SDS011;26535;48.788;9.214;2023-11-22T13:13:22;7.47;;;4.60;;
40815;SDS011;26535;48.788;9.214;2023-11-22T13:16:14;6.75;;;4.18;;
40815;SDS011;26535;48.788;9.214;2023-11-22T13:18:42;7.43;;;3.80;;
40815;SDS011;26535;48.788;9.214;2023-11-22T13:21:07;7.53;;;4.00;;
40815;SDS011;26535;48.788;9.214;2023-11-22T13:23:33;7.63;;;4.05;;
40815;SDS011;26535;48.788;9.214;2023-11-22T13:26:05;8.73;;;4.28;;
40815;SDS011;26535;48.788;9.214;2023-11-22T13:28:34;7.72;;;4.32;;
40815;SDS011;26535;48.788;9.214;2023-11-22T13:31:06;7.82;;;4.70;;
40815;SDS011;26535;48.788;9.214;2023-11-22T13:33:31;7.13;;;4.20;;
40815;SDS011;26535;48.788;9.214;2023-11-22T13:35:58;8.73;;;4.30;;
40815;SDS011;26535;48.788;9.214;2023-11-22T13:38:24;6.82;;;3.63;;
40815;SDS011;26535;48.788;9.214;2023-11-22T13:40:52;7.55;;;4.78;;
40815;SDS011;26535;48.788;9.214;2023-11-22T13:43:24;7.32;;;4.93;;
40815;SDS011;26535;48.788;9.214;2023-11-22T13:46:12;8.13;;;4.30;;
40815;SDS011;26535;48.788;9.214;2023-11-22T13:48:38;8.80;;;4.45;;
40815;SDS011;26535;48.788;9.214;2023-11-22T13:51:04;7.32;;;3.75;;
40815;SDS011;26535;48.788;9.214;2023-11-22T13:53:32;7.30;;;3.88;;
40815;SDS011;26535;48.788;9.214;2023-11-22T13:56:00;8.82;;;5.07;;
40815;SDS011;26535;48.788;9.214;2023-11-22T14:01:26;8.10;;;4.32;;
40815;SDS011;26535;48.788;9.214;2023-11-22T14:06:59;8.07;;;4.68;;
40815;SDS011;26535;48.788;9.214;2023-11-22T14:09:25;7.45;;;4.40;;
40815;SDS011;26535;48.788;9.214;2023-11-22T14:11:52;7.57;;;3.90;;
40815;SDS011;26535;48.788;9.214;2023-11-22T14:15:01;6.50;;;4.20;;
40815;SDS011;26535;48.788;9.214;2023-11-22T14:17:35;7.47;;;4.30;;
40815;SDS011;26535;48.788;9.214;2023-11-22T14:20:37;8.20;;;3.97;;
40815;SDS011;26535;48.788;9.214;2023-11-22T14:23:18;7.38;;;4.35;;
40815;SDS011;26535;48.788;9.214;2023-11-22T14:25:44;8.57;;;4.53;;
40815;SDS011;26535;48.788;9.214;2023-11-22T14:28:38;7.18;;;4.45;;
40815;SDS011;26535;48.788;9.214;2023-11-22T14:31:04;7.45;;;4.28;;
40815;SDS011;26535;48.788;9.214;2023-11-22T14:33:30;6.38;;;4.22;;
40815;SDS011;26535;48.788;9.214;2023-11-22T14:35:57;7.23;;;4.60;;
40815;SDS011;26535;48.788;9.214;2023-11-22T14:38:23;6.88;;;4.40;;
40815;SDS011;26535;48.788;9.214;2023-11-22T14:40:51;8.73;;;4.80;;
40815;SDS011;26535;48.788;9.214;2023-11-22T14:46:25;7.90;;;4.95;;
40815;SDS011;26535;48.788;9.214;2023-11-22T14:49:31;7.38;;;4.70;;
40815;SDS011;26535;48.788;9.214;2023-11-22T14:51:58;7.65;;;4.32;;
40815;SDS011;26535;48.788;9.214;2023-11-22T14:54:29;10.90;;;4.72;;
40815;SDS011;26535;48.788;9.214;2023-11-22T14:56:55;7.90;;;4.30;;
40815;SDS011;26535;48.788;9.214;2023-11-22T14:59:38;8.68;;;4.78;;
40815;SDS011;26535;48.788;9.214;2023-11-22T15:02:07;7.60;;;4.55;;
40815;SDS011;26535;48.788;9.214;2023-11-22T15:04:37;6.13;;;3.78;;
40815;SDS011;26535;48.788;9.214;2023-11-22T15:07:06;8.18;;;4.47;;
40815;SDS011;26535;48.788;9.214;2023-11-22T15:09:35;7.07;;;4.40;;
40815;SDS011;26535;48.788;9.214;2023-11-22T15:12:01;10.15;;;4.63;;
40815;SDS011;26535;48.788;9.214;2023-11-22T15:14:39;7.32;;;4.47;;
40815;SDS011;26535;48.788;9.214;2023-11-22T15:17:07;8.15;;;4.57;;
40815;SDS011;26535;48.788;9.214;2023-11-22T15:19:39;6.72;;;4.25;;
40815;SDS011;26535;48.788;9.214;2023-11-22T15:22:06;7.82;;;5.00;;
40815;SDS011;26535;48.788;9.214;2023-11-22T15:24:32;8.15;;;5.20;;
40815;SDS011;26535;48.788;9.214;2023-11-22T15:26:58;9.00;;;5.03;;
40815;SDS011;26535;48.788;9.214;2023-11-22T15:29:26;7.25;;;4.45;;
40815;SDS011;26535;48.788;9.214;2023-11-22T15:32:13;7.00;;;4.38;;
40815;SDS011;26535;48.788;9.214;2023-11-22T15:37:30;8.57;;;5.40;;
40815;SDS011;26535;48.788;9.214;2023-11-22T15:39:57;8.98;;;5.05;;
40815;SDS011;26535;48.788;9.214;2023-11-22T15:42:29;9.20;;;5.05;;
40815;SDS011;26535;48.788;9.214;2023-11-22T15:51:40;8.23;;;4.95;;
40815;SDS011;26535;48.788;9.214;2023-11-22T15:57:15;7.55;;;4.57;;
40815;SDS011;26535;48.788;9.214;2023-11-22T16:00:24;7.85;;;5.05;;
40815;SDS011;26535;48.788;9.214;2023-11-22T16:03:53;7.38;;;4.97;;
40815;SDS011;26535;48.788;9.214;2023-11-22T16:32:44;8.02;;;5.45;;
40815;SDS011;26535;48.788;9.214;2023-11-22T18:10:08;7.28;;;4.95;;
40815;SDS011;26535;48.788;9.214;2023-11-22T18:12:59;6.85;;;5.05;;
40815;SDS011;26535;48.788;9.214;2023-11-22T18:48:54;9.00;;;5.70;;
40815;SDS011;26535;48.788;9.214;2023-11-22T18:51:20;7.07;;;4.72;;
40815;SDS011;26535;48.788;9.214;2023-11-22T18:53:46;7.18;;;5.07;;
40815;SDS011;26535;48.788;9.214;2023-11-22T18:56:17;8.00;;;5.05;;
40815;SDS011;26535;48.788;9.214;2023-11-22T18:58:43;7.47;;;5.07;;
40815;SDS011;26535;48.788;9.214;2023-11-22T19:01:10;8.43;;;5.03;;
40815;SDS011;26535;48.788;9.214;2023-11-22T19:03:49;7.28;;;4.60;;
40815;SDS011;26535;48.788;9.214;2023-11-22T19:06:40;9.65;;;4.95;;
40815;SDS011;26535;48.788;9.214;2023-11-22T19:09:36;8.27;;;5.43;;
40815;SDS011;26535;48.788;9.214;2023-11-22T19:12:02;6.95;;;4.68;;
40815;SDS011;26535;48.788;9.214;2023-11-22T19:14:28;7.10;;;5.10;;
40815;SDS011;26535;48.788;9.214;2023-11-22T19:19:44;9.27;;;6.20;;
40815;SDS011;26535;48.788;9.214;2023-11-22T19:22:45;9.18;;;5.78;;
40815;SDS011;26535;48.788;9.214;2023-11-22T19:25:32;10.32;;;6.50;;
40815;SDS011;26535;48.788;9.214;2023-11-22T19:28:08;8.55;;;6.15;;
40815;SDS011;26535;48.788;9.214;2023-11-22T19:30:43;8.05;;;6.15;;
40815;SDS011;26535;48.788;9.214;2023-11-22T19:33:21;9.23;;;5.45;;
40815;SDS011;26535;48.788;9.214;2023-11-22T19:36:56;8.52;;;5.40;;
40815;SDS011;26535;48.788;9.214;2023-11-22T19:39:25;8.80;;;5.72;;
40815;SDS011;26535;48.788;9.214;2023-11-22T19:42:16;8.77;;;6.00;;
40815;SDS011;26535;48.788;9.214;2023-11-22T19:44:41;7.57;;;5.03;;
40815;SDS011;26535;48.788;9.214;2023-11-22T19:47:20;8.00;;;5.90;;
40815;SDS011;26535;48.788;9.214;2023-11-22T19:49:46;9.63;;;5.78;;
40815;SDS011;26535;48.788;9.214;2023-11-22T19:52:12;9.68;;;6.40;;
40815;SDS011;26535;48.788;9.214;2023-11-22T19:54:44;9.98;;;6.13;;
40815;SDS011;26535;48.788;9.214;2023-11-22T19:57:13;10.30;;;6.80;;
40815;SDS011;26535;48.788;9.214;2023-11-22T19:59:39;10.35;;;7.00;;
40815;SDS011;26535;48.788;9.214;2023-11-22T20:02:05;10.00;;;6.90;;
40815;SDS011;26535;48.788;9.214;2023-11-22T20:05:01;9.32;;;6.85;;
40815;SDS011;26535;48.788;9.214;2023-11-22T20:07:36;9.77;;;6.82;;
40815;SDS011;26535;48.788;9.214;2023-11-22T20:10:12;9.75;;;7.13;;
40815;SDS011;26535;48.788;9.214;2023-11-22T20:12:43;11.52;;;7.68;;
40815;SDS011;26535;48.788;9.214;2023-11-22T20:15:29;11.15;;;6.72;;
40815;SDS011;26535;48.788;9.214;2023-11-22T20:17:55;8.98;;;6.35;;
40815;SDS011;26535;48.788;9.214;2023-11-22T20:20:21;9.50;;;6.95;;
40815;SDS011;26535;48.788;9.214;2023-11-22T20:22:48;10.55;;;7.13;;
40815;SDS011;26535;48.788;9.214;2023-11-22T20:25:14;12.30;;;8.23;;
40815;SDS011;26535;48.788;9.214;2023-11-22T20:27:40;11.77;;;7.63;;
40815;SDS011;26535;48.788;9.214;2023-11-22T20:30:09;11.80;;;8.35;;
40815;SDS011;26535;48.788;9.214;2023-11-22T20:32:35;11.48;;;7.40;;
40815;SDS011;26535;48.788;9.214;2023-11-22T20:35:10;14.00;;;8.95;;
40815;SDS011;26535;48.788;9.214;2023-11-22T20:37:54;15.50;;;8.90;;
40815;SDS011;26535;48.788;9.214;2023-11-22T20:40:23;13.45;;;9.02;;
40815;SDS011;26535;48.788;9.214;2023-11-22T20:42:50;13.77;;;7.82;;
40815;SDS011;26535;48.788;9.214;2023-11-22T20:45:22;13.18;;;8.80;;
40815;SDS011;26535;48.788;9.214;2023-11-22T20:48:06;12.57;;;8.27;;
40815;SDS011;26535;48.788;9.214;2023-11-22T20:51:01;14.40;;;8.52;;
40815;SDS011;26535;48.788;9.214;2023-11-22T20:53:30;12.07;;;8.25;;
40815;SDS011;26535;48.788;9.214;2023-11-22T20:55:56;10.85;;;7.47;;
40815;SDS011;26535;48.788;9.214;2023-11-22T20:58:27;11.68;;;7.95;;
40815;SDS011;26535;48.788;9.214;2023-11-22T21:00:52;11.57;;;7.78;;
40815;SDS011;26535;48.788;9.214;2023-11-22T21:03:30;12.75;;;8.52;;
40815;SDS011;26535;48.788;9.214;2023-11-22T21:05:59;12.70;;;8.30;;
40815;SDS011;26535;48.788;9.214;2023-11-22T21:08:26;14.90;;;9.48;;
40815;SDS011;26535;48.788;9.214;2023-11-22T21:11:04;11.50;;;8.32;;
40815;SDS011;26535;48.788;9.214;2023-11-22T21:13:36;15.65;;;8.35;;
40815;SDS011;26535;48.788;9.214;2023-11-22T21:16:05;12.93;;;8.38;;
40815;SDS011;26535;48.788;9.214;2023-11-22T21:18:34;12.55;;;8.20;;
40815;SDS011;26535;48.788;9.214;2023-11-22T21:21:03;12.70;;;8.40;;
40815;SDS011;26535;48.788;9.214;2023-11-22T21:23:32;12.98;;;8.95;;
40815;SDS011;26535;48.788;9.214;2023-11-22T21:26:19;14.07;;;8.90;;
40815;SDS011;26535;48.788;9.214;2023-11-22T21:28:47;15.60;;;9.52;;
40815;SDS011;26535;48.788;9.214;2023-11-22T21:34:11;14.00;;;9.40;;
40815;SDS011;26535;48.788;9.214;2023-11-22T21:36:44;16.40;;;10.00;;
40815;SDS011;26535;48.788;9.214;2023-11-22T21:39:38;14.15;;;9.82;;
40815;SDS011;26535;48.788;9.214;2023-11-22T21:42:04;16.58;;;9.45;;
40815;SDS011;26535;48.788;9.214;2023-11-22T21:44:30;12.88;;;9.05;;
40815;SDS011;26535;48.788;9.214;2023-11-22T21:47:01;14.88;;;9.93;;
40815;SDS011;26535;48.788;9.214;2023-11-22T21:50:04;15.27;;;9.45;;
40815;SDS011;26535;48.788;9.214;2023-11-22T21:52:36;14.05;;;9.80;;
40815;SDS011;26535;48.788;9.214;2023-11-22T21:55:06;15.73;;;10.00;;
40815;SDS011;26535;48.788;9.214;2023-11-22T21:57:32;16.30;;;9.77;;
40815;SDS011;26535;48.788;9.214;2023-11-22T21:59:58;18.50;;;10.55;;
40815;SDS011;26535;48.788;9.214;2023-11-22T22:02:29;16.17;;;10.15;;
40815;SDS011;26535;48.788;9.214;2023-11-22T22:04:55;15.80;;;10.45;;
40815;SDS011;26535;48.788;9.214;2023-11-22T22:07:21;18.48;;;11.30;;
40815;SDS011;26535;48.788;9.214;2023-11-22T22:09:50;16.40;;;10.50;;
40815;SDS011;26535;48.788;9.214;2023-11-22T22:12:25;17.15;;;11.20;;
40815;SDS011;26535;48.788;9.214;2023-11-22T22:14:54;16.45;;;11.07;;
40815;SDS011;26535;48.788;9.214;2023-11-22T22:17:22;16.63;;;11.07;;
40815;SDS011;26535;48.788;9.214;2023-11-22T22:19:51;17.10;;;10.82;;
40815;SDS011;26535;48.788;9.214;2023-11-22T22:22:43;15.43;;;10.40;;
40815;SDS011;26535;48.788;9.214;2023-11-22T22:25:31;16.77;;;11.02;;
40815;SDS011;26535;48.788;9.214;2023-11-22T22:27:57;15.20;;;10.23;;
40815;SDS011;26535;48.788;9.214;2023-11-22T22:30:23;16.30;;;10.60;;
40815;SDS011;26535;48.788;9.214;2023-11-22T22:33:09;15.77;;;10.48;;
40815;SDS011;26535;48.788;9.214;2023-11-22T22:35:35;15.65;;;10.20;;
40815;SDS011;26535;48.788;9.214;2023-11-22T22:38:00;14.18;;;9.27;;
40815;SDS011;26535;48.788;9.214;2023-11-22T22:40:29;15.48;;;10.25;;
40815;SDS011;26535;48.788;9.214;2023-11-22T22:42:57;16.30;;;9.95;;
40815;SDS011;26535;48.788;9.214;2023-11-22T22:45:23;14.50;;;9.82;;
40815;SDS011;26535;48.788;9.214;2023-11-22T22:47:52;16.02;;;10.80;;
40815;SDS011;26535;48.788;9.214;2023-11-22T22:50:17;15.35;;;10.07;;
40815;SDS011;26535;48.788;9.214;2023-11-22T22:52:49;14.13;;;9.35;;
40815;SDS011;26535;48.788;9.214;2023-11-22T22:55:21;14.85;;;10.07;;
40815;SDS011;26535;48.788;9.214;2023-11-22T22:57:47;16.30;;;10.57;;
40815;SDS011;26535;48.788;9.214;2023-11-22T23:00:17;16.33;;;9.80;;
40815;SDS011;26535;48.788;9.214;2023-11-22T23:03:12;13.75;;;9.90;;
40815;SDS011;26535;48.788;9.214;2023-11-22T23:05:48;16.33;;;10.63;;
40815;SDS011;26535;48.788;9.214;2023-11-22T23:08:17;18.48;;;10.70;;
40815;SDS011;26535;48.788;9.214;2023-11-22T23:10:49;17.23;;;11.15;;
40815;SDS011;26535;48.788;9.214;2023-11-22T23:13:21;17.67;;;10.80;;
40815;SDS011;26535;48.788;9.214;2023-11-22T23:15:59;16.92;;;10.65;;
40815;SDS011;26535;48.788;9.214;2023-11-22T23:18:25;17.15;;;11.00;;
40815;SDS011;26535;48.788;9.214;2023-11-22T23:20:52;15.45;;;9.88;;
40815;SDS011;26535;48.788;9.214;2023-11-22T23:23:21;16.70;;;10.55;;
40815;SDS011;26535;48.788;9.214;2023-11-22T23:25:50;16.30;;;10.38;;
40815;SDS011;26535;48.788;9.214;2023-11-22T23:28:20;15.40;;;10.50;;
40815;SDS011;26535;48.788;9.214;2023-11-22T23:31:27;15.13;;;10.53;;
40815;SDS011;26535;48.788;9.214;2023-11-22T23:37:01;16.33;;;10.68;;
40815;SDS011;26535;48.788;9.214;2023-11-22T23:40:08;15.77;;;10.50;;
40815;SDS011;26535;48.788;9.214;2023-11-22T23:42:53;15.63;;;10.32;;
40815;SDS011;26535;48.788;9.214;2023-11-22T23:45:25;17.17;;;10.68;;
40815;SDS011;26535;48.788;9.214;2023-11-22T23:48:35;15.38;;;9.98;;
40815;SDS011;26535;48.788;9.214;2023-11-22T23:51:05;15.93;;;10.38;;
40815;SDS011;26535;48.788;9.214;2023-11-22T23:53:31;16.45;;;10.73;;
40815;SDS011;26535;48.788;9.214;2023-11-22T23:55:57;16.85;;;11.13;;
40815;SDS011;26535;48.788;9.214;2023-11-22T23:58:25;18.08;;;10.55;;
